sensor_id;sensor_type;location;lat;lon;timestamp;P1;durP1;ratioP1;P2;durP2;ratioP2
14282;SDS011;7225;59.282;18.344;2023-06-19T00:01:08;19.73;;;17.67;;
14282;SDS011;7225;59.282;18.344;2023-06-19T00:03:35;21.23;;;18.97;;
14282;SDS011;7225;59.282;18.344;2023-06-19T00:06:02;23.47;;;19.03;;
14282;SDS011;7225;59.282;18.344;2023-06-19T00:08:29;23.40;;;19.90;;
14282;SDS011;7225;59.282;18.344;2023-06-19T00:10:57;21.87;;;19.57;;
14282;SDS011;7225;59.282;18.344;2023-06-19T00:13:24;22.03;;;19.43;;
14282;SDS011;7225;59.282;18.344;2023-06-19T00:15:51;21.67;;;18.97;;
14282;SDS011;7225;59.282;18.344;2023-06-19T00:18:18;22.40;;;19.80;;
14282;SDS011;7225;59.282;18.344;2023-06-19T00:20:46;23.80;;;19.57;;
14282;SDS011;7225;59.282;18.344;2023-06-19T00:23:13;22.47;;;20.03;;
14282;SDS011;7225;59.282;18.344;2023-06-19T00:25:43;22.33;;;19.17;;
14282;SDS011;7225;59.282;18.344;2023-06-19T00:28:11;24.07;;;20.10;;
14282;SDS011;7225;59.282;18.344;2023-06-19T00:30:41;22.67;;;20.17;;
14282;SDS011;7225;59.282;18.344;2023-06-19T00:33:08;22.50;;;20.20;;
14282;SDS011;7225;59.282;18.344;2023-06-19T00:35:35;23.50;;;20.70;;
14282;SDS011;7225;59.282;18.344;2023-06-19T00:38:04;22.37;;;19.97;;
14282;SDS011;7225;59.282;18.344;2023-06-19T00:40:32;22.77;;;19.67;;
14282;SDS011;7225;59.282;18.344;2023-06-19T00:43:00;22.17;;;19.77;;
14282;SDS011;7225;59.282;18.344;2023-06-19T00:45:28;21.73;;;19.37;;
14282;SDS011;7225;59.282;18.344;2023-06-19T00:47:56;22.47;;;20.13;;
14282;SDS011;7225;59.282;18.344;2023-06-19T00:50:24;20.90;;;18.63;;
14282;SDS011;7225;59.282;18.344;2023-06-19T00:52:52;21.60;;;19.23;;
14282;SDS011;7225;59.282;18.344;2023-06-19T00:55:19;22.47;;;19.97;;
14282;SDS011;7225;59.282;18.344;2023-06-19T00:57:48;22.90;;;19.83;;
14282;SDS011;7225;59.282;18.344;2023-06-19T01:00:17;22.57;;;20.03;;
14282;SDS011;7225;59.282;18.344;2023-06-19T01:02:44;22.40;;;19.70;;
14282;SDS011;7225;59.282;18.344;2023-06-19T01:05:13;22.90;;;20.50;;
14282;SDS011;7225;59.282;18.344;2023-06-19T01:07:43;20.43;;;17.80;;
14282;SDS011;7225;59.282;18.344;2023-06-19T01:10:15;22.73;;;19.67;;
14282;SDS011;7225;59.282;18.344;2023-06-19T01:13:13;20.97;;;18.77;;
14282;SDS011;7225;59.282;18.344;2023-06-19T01:15:43;20.67;;;18.47;;
14282;SDS011;7225;59.282;18.344;2023-06-19T01:18:11;18.90;;;17.10;;
14282;SDS011;7225;59.282;18.344;2023-06-19T01:20:39;19.43;;;17.53;;
14282;SDS011;7225;59.282;18.344;2023-06-19T01:23:07;19.07;;;17.27;;
14282;SDS011;7225;59.282;18.344;2023-06-19T01:25:35;18.40;;;16.70;;
14282;SDS011;7225;59.282;18.344;2023-06-19T01:28:02;18.83;;;17.10;;
14282;SDS011;7225;59.282;18.344;2023-06-19T01:30:32;17.83;;;16.13;;
14282;SDS011;7225;59.282;18.344;2023-06-19T01:35:36;16.37;;;14.77;;
14282;SDS011;7225;59.282;18.344;2023-06-19T01:38:06;16.20;;;14.80;;
14282;SDS011;7225;59.282;18.344;2023-06-19T01:40:34;16.13;;;14.67;;
14282;SDS011;7225;59.282;18.344;2023-06-19T01:43:03;15.17;;;13.73;;
14282;SDS011;7225;59.282;18.344;2023-06-19T01:45:32;15.13;;;13.57;;
14282;SDS011;7225;59.282;18.344;2023-06-19T01:47:59;14.07;;;12.80;;
14282;SDS011;7225;59.282;18.344;2023-06-19T01:50:26;15.07;;;13.67;;
14282;SDS011;7225;59.282;18.344;2023-06-19T01:52:53;14.33;;;13.13;;
14282;SDS011;7225;59.282;18.344;2023-06-19T01:55:20;15.83;;;14.27;;
14282;SDS011;7225;59.282;18.344;2023-06-19T01:57:47;15.33;;;13.67;;
14282;SDS011;7225;59.282;18.344;2023-06-19T02:00:14;14.60;;;13.20;;
14282;SDS011;7225;59.282;18.344;2023-06-19T02:02:42;14.40;;;13.00;;
14282;SDS011;7225;59.282;18.344;2023-06-19T02:05:09;15.63;;;14.13;;
14282;SDS011;7225;59.282;18.344;2023-06-19T02:07:36;15.13;;;13.83;;
14282;SDS011;7225;59.282;18.344;2023-06-19T02:10:03;15.30;;;13.73;;
14282;SDS011;7225;59.282;18.344;2023-06-19T02:12:31;15.00;;;13.63;;
14282;SDS011;7225;59.282;18.344;2023-06-19T02:14:58;15.97;;;14.47;;
14282;SDS011;7225;59.282;18.344;2023-06-19T02:17:25;16.20;;;14.57;;
14282;SDS011;7225;59.282;18.344;2023-06-19T02:19:52;15.20;;;13.63;;
14282;SDS011;7225;59.282;18.344;2023-06-19T02:22:19;15.87;;;13.73;;
14282;SDS011;7225;59.282;18.344;2023-06-19T02:24:46;14.63;;;13.33;;
14282;SDS011;7225;59.282;18.344;2023-06-19T02:27:13;15.63;;;14.27;;
14282;SDS011;7225;59.282;18.344;2023-06-19T02:29:43;15.60;;;14.07;;
14282;SDS011;7225;59.282;18.344;2023-06-19T02:32:10;15.33;;;13.93;;
14282;SDS011;7225;59.282;18.344;2023-06-19T02:34:37;15.97;;;14.37;;
14282;SDS011;7225;59.282;18.344;2023-06-19T02:37:05;14.77;;;13.37;;
14282;SDS011;7225;59.282;18.344;2023-06-19T02:39:32;13.33;;;12.23;;
14282;SDS011;7225;59.282;18.344;2023-06-19T02:41:59;14.93;;;13.43;;
14282;SDS011;7225;59.282;18.344;2023-06-19T02:44:26;14.47;;;13.00;;
14282;SDS011;7225;59.282;18.344;2023-06-19T02:46:53;14.90;;;13.03;;
14282;SDS011;7225;59.282;18.344;2023-06-19T02:49:28;13.33;;;12.03;;
14282;SDS011;7225;59.282;18.344;2023-06-19T02:51:55;13.43;;;12.23;;
14282;SDS011;7225;59.282;18.344;2023-06-19T02:54:22;14.10;;;12.70;;
14282;SDS011;7225;59.282;18.344;2023-06-19T02:56:49;14.00;;;12.60;;
14282;SDS011;7225;59.282;18.344;2023-06-19T02:59:16;13.07;;;11.87;;
14282;SDS011;7225;59.282;18.344;2023-06-19T03:01:43;14.13;;;12.83;;
14282;SDS011;7225;59.282;18.344;2023-06-19T03:04:11;14.73;;;13.27;;
14282;SDS011;7225;59.282;18.344;2023-06-19T03:06:39;13.17;;;11.87;;
14282;SDS011;7225;59.282;18.344;2023-06-19T03:09:06;13.60;;;12.30;;
14282;SDS011;7225;59.282;18.344;2023-06-19T03:11:41;14.07;;;12.67;;
14282;SDS011;7225;59.282;18.344;2023-06-19T03:14:08;13.50;;;12.23;;
14282;SDS011;7225;59.282;18.344;2023-06-19T03:16:35;14.30;;;12.97;;
14282;SDS011;7225;59.282;18.344;2023-06-19T03:19:02;14.77;;;13.33;;
14282;SDS011;7225;59.282;18.344;2023-06-19T03:21:29;14.03;;;12.63;;
14282;SDS011;7225;59.282;18.344;2023-06-19T03:23:56;14.33;;;12.87;;
14282;SDS011;7225;59.282;18.344;2023-06-19T03:26:23;14.13;;;12.63;;
14282;SDS011;7225;59.282;18.344;2023-06-19T03:28:53;13.10;;;11.83;;
14282;SDS011;7225;59.282;18.344;2023-06-19T03:31:20;14.37;;;12.97;;
14282;SDS011;7225;59.282;18.344;2023-06-19T03:33:47;16.10;;;11.97;;
14282;SDS011;7225;59.282;18.344;2023-06-19T03:36:14;14.40;;;13.00;;
14282;SDS011;7225;59.282;18.344;2023-06-19T03:38:41;14.07;;;12.53;;
14282;SDS011;7225;59.282;18.344;2023-06-19T03:41:08;13.60;;;12.23;;
14282;SDS011;7225;59.282;18.344;2023-06-19T03:43:35;13.83;;;12.27;;
14282;SDS011;7225;59.282;18.344;2023-06-19T03:46:03;14.00;;;12.57;;
14282;SDS011;7225;59.282;18.344;2023-06-19T03:48:30;13.47;;;12.07;;
14282;SDS011;7225;59.282;18.344;2023-06-19T03:50:57;13.30;;;11.90;;
14282;SDS011;7225;59.282;18.344;2023-06-19T03:53:25;13.03;;;10.97;;
14282;SDS011;7225;59.282;18.344;2023-06-19T03:55:53;14.37;;;12.23;;
14282;SDS011;7225;59.282;18.344;2023-06-19T03:58:22;14.50;;;13.00;;
14282;SDS011;7225;59.282;18.344;2023-06-19T04:00:49;14.77;;;13.43;;
14282;SDS011;7225;59.282;18.344;2023-06-19T04:03:18;15.00;;;12.93;;
14282;SDS011;7225;59.282;18.344;2023-06-19T04:05:45;13.37;;;11.87;;
14282;SDS011;7225;59.282;18.344;2023-06-19T04:08:12;15.63;;;12.87;;
14282;SDS011;7225;59.282;18.344;2023-06-19T04:10:39;16.67;;;12.93;;
14282;SDS011;7225;59.282;18.344;2023-06-19T04:13:06;14.57;;;13.07;;
14282;SDS011;7225;59.282;18.344;2023-06-19T04:15:33;15.60;;;14.00;;
14282;SDS011;7225;59.282;18.344;2023-06-19T04:18:02;16.87;;;13.43;;
14282;SDS011;7225;59.282;18.344;2023-06-19T04:20:29;18.40;;;14.50;;
14282;SDS011;7225;59.282;18.344;2023-06-19T04:22:56;17.57;;;14.53;;
14282;SDS011;7225;59.282;18.344;2023-06-19T04:25:23;17.23;;;15.50;;
14282;SDS011;7225;59.282;18.344;2023-06-19T04:27:50;17.50;;;15.60;;
14282;SDS011;7225;59.282;18.344;2023-06-19T04:30:17;17.50;;;15.70;;
14282;SDS011;7225;59.282;18.344;2023-06-19T04:32:47;20.30;;;17.37;;
14282;SDS011;7225;59.282;18.344;2023-06-19T04:35:15;22.17;;;17.70;;
14282;SDS011;7225;59.282;18.344;2023-06-19T04:37:44;20.63;;;17.10;;
14282;SDS011;7225;59.282;18.344;2023-06-19T04:40:15;18.43;;;16.50;;
14282;SDS011;7225;59.282;18.344;2023-06-19T04:42:42;22.63;;;18.60;;
14282;SDS011;7225;59.282;18.344;2023-06-19T04:45:09;26.90;;;19.53;;
14282;SDS011;7225;59.282;18.344;2023-06-19T04:47:37;23.20;;;20.63;;
14282;SDS011;7225;59.282;18.344;2023-06-19T04:50:18;24.23;;;21.10;;
14282;SDS011;7225;59.282;18.344;2023-06-19T04:52:46;28.40;;;22.07;;
14282;SDS011;7225;59.282;18.344;2023-06-19T04:55:17;26.53;;;21.33;;
14282;SDS011;7225;59.282;18.344;2023-06-19T04:57:46;27.70;;;23.67;;
14282;SDS011;7225;59.282;18.344;2023-06-19T05:00:13;28.80;;;22.30;;
14282;SDS011;7225;59.282;18.344;2023-06-19T05:02:41;29.63;;;23.00;;
14282;SDS011;7225;59.282;18.344;2023-06-19T05:05:14;30.80;;;22.90;;
14282;SDS011;7225;59.282;18.344;2023-06-19T05:07:42;25.93;;;22.43;;
14282;SDS011;7225;59.282;18.344;2023-06-19T05:10:11;26.67;;;20.93;;
14282;SDS011;7225;59.282;18.344;2023-06-19T05:12:38;33.10;;;22.63;;
14282;SDS011;7225;59.282;18.344;2023-06-19T05:15:05;27.23;;;21.90;;
14282;SDS011;7225;59.282;18.344;2023-06-19T05:17:33;34.73;;;24.67;;
14282;SDS011;7225;59.282;18.344;2023-06-19T05:20:00;33.97;;;23.83;;
14282;SDS011;7225;59.282;18.344;2023-06-19T05:22:27;30.90;;;23.23;;
14282;SDS011;7225;59.282;18.344;2023-06-19T05:24:54;31.57;;;22.10;;
14282;SDS011;7225;59.282;18.344;2023-06-19T05:27:21;25.67;;;18.43;;
14282;SDS011;7225;59.282;18.344;2023-06-19T05:29:48;24.03;;;19.97;;
14282;SDS011;7225;59.282;18.344;2023-06-19T05:32:15;21.03;;;17.33;;
14282;SDS011;7225;59.282;18.344;2023-06-19T05:34:42;18.93;;;17.03;;
14282;SDS011;7225;59.282;18.344;2023-06-19T05:37:09;19.40;;;17.50;;
14282;SDS011;7225;59.282;18.344;2023-06-19T05:39:36;18.23;;;16.33;;
14282;SDS011;7225;59.282;18.344;2023-06-19T05:42:03;17.87;;;16.10;;
14282;SDS011;7225;59.282;18.344;2023-06-19T05:44:30;18.60;;;16.80;;
14282;SDS011;7225;59.282;18.344;2023-06-19T05:46:57;18.57;;;16.70;;
14282;SDS011;7225;59.282;18.344;2023-06-19T05:49:24;18.80;;;16.93;;
14282;SDS011;7225;59.282;18.344;2023-06-19T05:51:51;18.90;;;17.10;;
14282;SDS011;7225;59.282;18.344;2023-06-19T05:54:18;17.30;;;15.63;;
14282;SDS011;7225;59.282;18.344;2023-06-19T05:56:45;18.63;;;16.77;;
14282;SDS011;7225;59.282;18.344;2023-06-19T05:59:13;18.87;;;16.90;;
14282;SDS011;7225;59.282;18.344;2023-06-19T06:01:40;18.57;;;16.03;;
14282;SDS011;7225;59.282;18.344;2023-06-19T06:04:08;17.60;;;15.73;;
14282;SDS011;7225;59.282;18.344;2023-06-19T06:06:35;18.27;;;15.77;;
14282;SDS011;7225;59.282;18.344;2023-06-19T06:09:02;18.27;;;16.30;;
14282;SDS011;7225;59.282;18.344;2023-06-19T06:11:29;18.80;;;16.83;;
14282;SDS011;7225;59.282;18.344;2023-06-19T06:13:56;17.60;;;15.17;;
14282;SDS011;7225;59.282;18.344;2023-06-19T06:16:23;17.90;;;16.20;;
14282;SDS011;7225;59.282;18.344;2023-06-19T06:18:50;16.20;;;14.60;;
14282;SDS011;7225;59.282;18.344;2023-06-19T06:21:17;18.90;;;16.27;;
14282;SDS011;7225;59.282;18.344;2023-06-19T06:23:44;16.97;;;15.27;;
14282;SDS011;7225;59.282;18.344;2023-06-19T06:26:11;16.23;;;14.53;;
14282;SDS011;7225;59.282;18.344;2023-06-19T06:28:38;16.53;;;15.00;;
14282;SDS011;7225;59.282;18.344;2023-06-19T06:31:06;17.13;;;15.33;;
14282;SDS011;7225;59.282;18.344;2023-06-19T06:33:33;14.57;;;13.07;;
14282;SDS011;7225;59.282;18.344;2023-06-19T06:36:00;13.90;;;12.60;;
14282;SDS011;7225;59.282;18.344;2023-06-19T06:38:28;15.17;;;13.70;;
14282;SDS011;7225;59.282;18.344;2023-06-19T06:40:55;15.30;;;13.53;;
14282;SDS011;7225;59.282;18.344;2023-06-19T06:43:22;12.57;;;11.23;;
14282;SDS011;7225;59.282;18.344;2023-06-19T06:45:49;12.13;;;11.13;;
14282;SDS011;7225;59.282;18.344;2023-06-19T06:48:16;12.00;;;10.90;;
14282;SDS011;7225;59.282;18.344;2023-06-19T06:50:43;14.33;;;10.77;;
14282;SDS011;7225;59.282;18.344;2023-06-19T06:53:10;13.73;;;11.10;;
14282;SDS011;7225;59.282;18.344;2023-06-19T06:55:37;11.53;;;10.40;;
14282;SDS011;7225;59.282;18.344;2023-06-19T06:58:04;12.37;;;10.50;;
14282;SDS011;7225;59.282;18.344;2023-06-19T07:00:31;11.30;;;10.20;;
14282;SDS011;7225;59.282;18.344;2023-06-19T07:02:58;11.10;;;10.00;;
14282;SDS011;7225;59.282;18.344;2023-06-19T07:05:26;10.90;;;9.80;;
14282;SDS011;7225;59.282;18.344;2023-06-19T07:07:55;12.20;;;8.50;;
14282;SDS011;7225;59.282;18.344;2023-06-19T07:10:22;12.40;;;9.87;;
14282;SDS011;7225;59.282;18.344;2023-06-19T07:12:50;10.47;;;9.47;;
14282;SDS011;7225;59.282;18.344;2023-06-19T07:15:18;11.03;;;10.00;;
14282;SDS011;7225;59.282;18.344;2023-06-19T07:17:46;10.52;;;9.15;;
14282;SDS011;7225;59.282;18.344;2023-06-19T07:20:13;10.77;;;9.73;;
14282;SDS011;7225;59.282;18.344;2023-06-19T07:22:41;9.57;;;8.63;;
14282;SDS011;7225;59.282;18.344;2023-06-19T07:25:09;10.60;;;9.50;;
14282;SDS011;7225;59.282;18.344;2023-06-19T07:27:39;10.67;;;9.57;;
14282;SDS011;7225;59.282;18.344;2023-06-19T07:30:07;10.67;;;9.57;;
14282;SDS011;7225;59.282;18.344;2023-06-19T07:32:35;9.25;;;8.20;;
14282;SDS011;7225;59.282;18.344;2023-06-19T07:35:02;10.17;;;9.10;;
14282;SDS011;7225;59.282;18.344;2023-06-19T07:37:30;9.65;;;8.75;;
14282;SDS011;7225;59.282;18.344;2023-06-19T07:39:59;9.40;;;8.13;;
14282;SDS011;7225;59.282;18.344;2023-06-19T07:42:26;9.48;;;8.57;;
14282;SDS011;7225;59.282;18.344;2023-06-19T07:44:53;10.05;;;8.20;;
14282;SDS011;7225;59.282;18.344;2023-06-19T07:47:20;9.40;;;8.40;;
14282;SDS011;7225;59.282;18.344;2023-06-19T07:49:47;8.57;;;7.78;;
14282;SDS011;7225;59.282;18.344;2023-06-19T07:52:14;8.90;;;7.97;;
14282;SDS011;7225;59.282;18.344;2023-06-19T07:54:50;8.47;;;7.67;;
14282;SDS011;7225;59.282;18.344;2023-06-19T07:57:18;9.30;;;8.40;;
14282;SDS011;7225;59.282;18.344;2023-06-19T07:59:46;9.82;;;8.90;;
14282;SDS011;7225;59.282;18.344;2023-06-19T08:02:14;8.82;;;8.02;;
14282;SDS011;7225;59.282;18.344;2023-06-19T08:04:41;8.30;;;7.60;;
14282;SDS011;7225;59.282;18.344;2023-06-19T08:07:08;10.20;;;8.32;;
14282;SDS011;7225;59.282;18.344;2023-06-19T08:09:35;8.63;;;7.82;;
14282;SDS011;7225;59.282;18.344;2023-06-19T08:12:03;9.48;;;8.52;;
14282;SDS011;7225;59.282;18.344;2023-06-19T08:14:31;12.18;;;7.60;;
14282;SDS011;7225;59.282;18.344;2023-06-19T08:16:58;8.85;;;7.38;;
14282;SDS011;7225;59.282;18.344;2023-06-19T08:19:25;8.50;;;7.60;;
14282;SDS011;7225;59.282;18.344;2023-06-19T08:21:52;9.80;;;7.80;;
14282;SDS011;7225;59.282;18.344;2023-06-19T08:24:19;9.05;;;7.60;;
14282;SDS011;7225;59.282;18.344;2023-06-19T08:26:46;8.88;;;7.70;;
14282;SDS011;7225;59.282;18.344;2023-06-19T08:29:17;10.10;;;7.00;;
14282;SDS011;7225;59.282;18.344;2023-06-19T08:31:45;9.75;;;7.38;;
14282;SDS011;7225;59.282;18.344;2023-06-19T08:34:13;8.25;;;7.38;;
14282;SDS011;7225;59.282;18.344;2023-06-19T08:36:40;8.68;;;7.78;;
14282;SDS011;7225;59.282;18.344;2023-06-19T08:39:08;10.63;;;7.25;;
14282;SDS011;7225;59.282;18.344;2023-06-19T08:41:38;8.60;;;7.80;;
14282;SDS011;7225;59.282;18.344;2023-06-19T08:44:07;10.60;;;7.85;;
14282;SDS011;7225;59.282;18.344;2023-06-19T08:46:36;8.15;;;7.30;;
14282;SDS011;7225;59.282;18.344;2023-06-19T08:49:03;9.95;;;7.35;;
14282;SDS011;7225;59.282;18.344;2023-06-19T08:51:32;8.15;;;7.30;;
14282;SDS011;7225;59.282;18.344;2023-06-19T08:54:01;8.00;;;7.20;;
14282;SDS011;7225;59.282;18.344;2023-06-19T08:56:33;11.93;;;7.80;;
14282;SDS011;7225;59.282;18.344;2023-06-19T08:59:11;7.32;;;6.50;;
14282;SDS011;7225;59.282;18.344;2023-06-19T09:01:45;8.63;;;7.30;;
14282;SDS011;7225;59.282;18.344;2023-06-19T09:04:19;8.25;;;7.38;;
14282;SDS011;7225;59.282;18.344;2023-06-19T09:09:19;7.70;;;6.90;;
14282;SDS011;7225;59.282;18.344;2023-06-19T09:14:31;9.88;;;7.18;;
14282;SDS011;7225;59.282;18.344;2023-06-19T09:17:02;10.68;;;6.68;;
14282;SDS011;7225;59.282;18.344;2023-06-19T09:19:32;8.15;;;6.68;;
14282;SDS011;7225;59.282;18.344;2023-06-19T09:22:01;8.88;;;6.60;;
14282;SDS011;7225;59.282;18.344;2023-06-19T09:24:36;8.13;;;6.60;;
14282;SDS011;7225;59.282;18.344;2023-06-19T09:29:40;7.65;;;6.18;;
14282;SDS011;7225;59.282;18.344;2023-06-19T09:34:51;10.73;;;6.45;;
14282;SDS011;7225;59.282;18.344;2023-06-19T09:37:23;8.75;;;6.22;;
14282;SDS011;7225;59.282;18.344;2023-06-19T09:39:52;9.23;;;6.90;;
14282;SDS011;7225;59.282;18.344;2023-06-19T09:42:29;7.47;;;6.40;;
14282;SDS011;7225;59.282;18.344;2023-06-19T09:45:00;8.80;;;6.07;;
14282;SDS011;7225;59.282;18.344;2023-06-19T09:47:31;7.45;;;6.57;;
14282;SDS011;7225;59.282;18.344;2023-06-19T09:50:08;8.75;;;6.60;;
14282;SDS011;7225;59.282;18.344;2023-06-19T09:52:42;8.38;;;6.35;;
14282;SDS011;7225;59.282;18.344;2023-06-19T09:55:10;9.50;;;7.13;;
14282;SDS011;7225;59.282;18.344;2023-06-19T09:57:41;9.25;;;6.88;;
14282;SDS011;7225;59.282;18.344;2023-06-19T10:00:11;9.02;;;5.80;;
14282;SDS011;7225;59.282;18.344;2023-06-19T10:02:49;8.82;;;7.82;;
14282;SDS011;7225;59.282;18.344;2023-06-19T10:05:27;9.23;;;7.13;;
14282;SDS011;7225;59.282;18.344;2023-06-19T10:07:56;8.93;;;6.63;;
14282;SDS011;7225;59.282;18.344;2023-06-19T10:10:27;7.47;;;6.45;;
14282;SDS011;7225;59.282;18.344;2023-06-19T10:13:11;9.15;;;6.35;;
14282;SDS011;7225;59.282;18.344;2023-06-19T10:15:43;8.70;;;6.75;;
14282;SDS011;7225;59.282;18.344;2023-06-19T10:18:14;8.13;;;7.28;;
14282;SDS011;7225;59.282;18.344;2023-06-19T10:20:43;11.00;;;7.38;;
14282;SDS011;7225;59.282;18.344;2023-06-19T10:23:14;8.02;;;6.78;;
14282;SDS011;7225;59.282;18.344;2023-06-19T10:25:47;13.52;;;7.10;;
14282;SDS011;7225;59.282;18.344;2023-06-19T10:28:16;8.15;;;7.05;;
14282;SDS011;7225;59.282;18.344;2023-06-19T10:30:43;9.77;;;7.22;;
14282;SDS011;7225;59.282;18.344;2023-06-19T10:33:10;9.18;;;7.07;;
14282;SDS011;7225;59.282;18.344;2023-06-19T10:35:38;9.13;;;7.28;;
14282;SDS011;7225;59.282;18.344;2023-06-19T10:38:06;9.98;;;7.55;;
14282;SDS011;7225;59.282;18.344;2023-06-19T10:40:35;12.02;;;7.65;;
14282;SDS011;7225;59.282;18.344;2023-06-19T10:43:03;8.80;;;7.82;;
14282;SDS011;7225;59.282;18.344;2023-06-19T10:45:30;11.48;;;8.30;;
14282;SDS011;7225;59.282;18.344;2023-06-19T10:48:00;9.25;;;7.80;;
14282;SDS011;7225;59.282;18.344;2023-06-19T10:50:34;8.95;;;8.05;;
14282;SDS011;7225;59.282;18.344;2023-06-19T10:53:08;11.30;;;9.00;;
14282;SDS011;7225;59.282;18.344;2023-06-19T10:55:35;12.25;;;8.43;;
14282;SDS011;7225;59.282;18.344;2023-06-19T10:58:02;11.30;;;8.52;;
14282;SDS011;7225;59.282;18.344;2023-06-19T11:00:30;10.35;;;8.82;;
14282;SDS011;7225;59.282;18.344;2023-06-19T11:03:00;18.23;;;8.18;;
14282;SDS011;7225;59.282;18.344;2023-06-19T11:05:27;13.68;;;9.80;;
14282;SDS011;7225;59.282;18.344;2023-06-19T11:07:55;12.38;;;10.32;;
14282;SDS011;7225;59.282;18.344;2023-06-19T11:10:24;15.13;;;10.48;;
14282;SDS011;7225;59.282;18.344;2023-06-19T11:12:53;10.85;;;9.63;;
14282;SDS011;7225;59.282;18.344;2023-06-19T11:15:31;13.73;;;9.73;;
14282;SDS011;7225;59.282;18.344;2023-06-19T11:18:00;14.10;;;9.63;;
14282;SDS011;7225;59.282;18.344;2023-06-19T11:20:29;13.15;;;9.50;;
14282;SDS011;7225;59.282;18.344;2023-06-19T11:22:58;14.13;;;9.80;;
14282;SDS011;7225;59.282;18.344;2023-06-19T11:25:37;16.37;;;10.63;;
14282;SDS011;7225;59.282;18.344;2023-06-19T11:28:14;12.53;;;9.40;;
14282;SDS011;7225;59.282;18.344;2023-06-19T11:30:44;12.00;;;9.63;;
14282;SDS011;7225;59.282;18.344;2023-06-19T11:33:20;10.50;;;9.50;;
14282;SDS011;7225;59.282;18.344;2023-06-19T11:35:49;13.40;;;10.00;;
14282;SDS011;7225;59.282;18.344;2023-06-19T11:38:22;13.65;;;10.38;;
14282;SDS011;7225;59.282;18.344;2023-06-19T11:40:51;11.10;;;9.73;;
14282;SDS011;7225;59.282;18.344;2023-06-19T11:45:52;10.80;;;9.75;;
14282;SDS011;7225;59.282;18.344;2023-06-19T11:48:26;10.55;;;9.38;;
14282;SDS011;7225;59.282;18.344;2023-06-19T11:50:53;9.02;;;8.15;;
14282;SDS011;7225;59.282;18.344;2023-06-19T11:53:21;10.60;;;9.18;;
14282;SDS011;7225;59.282;18.344;2023-06-19T11:55:50;9.73;;;8.73;;
14282;SDS011;7225;59.282;18.344;2023-06-19T11:58:17;10.20;;;8.48;;
14282;SDS011;7225;59.282;18.344;2023-06-19T12:00:47;11.18;;;8.75;;
14282;SDS011;7225;59.282;18.344;2023-06-19T12:03:15;10.02;;;8.85;;
14282;SDS011;7225;59.282;18.344;2023-06-19T12:05:42;9.63;;;8.75;;
14282;SDS011;7225;59.282;18.344;2023-06-19T12:08:10;11.30;;;9.15;;
14282;SDS011;7225;59.282;18.344;2023-06-19T12:10:37;10.48;;;9.07;;
14282;SDS011;7225;59.282;18.344;2023-06-19T12:13:04;10.90;;;9.80;;
14282;SDS011;7225;59.282;18.344;2023-06-19T12:15:31;10.95;;;9.63;;
14282;SDS011;7225;59.282;18.344;2023-06-19T12:18:00;11.35;;;10.07;;
14282;SDS011;7225;59.282;18.344;2023-06-19T12:20:27;10.80;;;9.45;;
14282;SDS011;7225;59.282;18.344;2023-06-19T12:22:54;10.07;;;9.15;;
14282;SDS011;7225;59.282;18.344;2023-06-19T12:25:21;11.07;;;9.98;;
14282;SDS011;7225;59.282;18.344;2023-06-19T12:27:48;11.00;;;9.90;;
14282;SDS011;7225;59.282;18.344;2023-06-19T12:30:20;10.68;;;9.77;;
14282;SDS011;7225;59.282;18.344;2023-06-19T12:32:48;11.43;;;10.25;;
14282;SDS011;7225;59.282;18.344;2023-06-19T12:35:16;12.68;;;10.40;;
14282;SDS011;7225;59.282;18.344;2023-06-19T12:37:44;11.50;;;10.25;;
14282;SDS011;7225;59.282;18.344;2023-06-19T12:40:12;11.38;;;10.27;;
14282;SDS011;7225;59.282;18.344;2023-06-19T12:42:39;11.85;;;10.65;;
14282;SDS011;7225;59.282;18.344;2023-06-19T12:45:06;11.95;;;10.85;;
14282;SDS011;7225;59.282;18.344;2023-06-19T12:47:34;11.25;;;10.15;;
14282;SDS011;7225;59.282;18.344;2023-06-19T12:50:01;12.27;;;10.52;;
14282;SDS011;7225;59.282;18.344;2023-06-19T12:52:29;11.35;;;10.18;;
14282;SDS011;7225;59.282;18.344;2023-06-19T12:54:57;12.85;;;11.52;;
14282;SDS011;7225;59.282;18.344;2023-06-19T12:57:26;13.38;;;10.70;;
14282;SDS011;7225;59.282;18.344;2023-06-19T12:59:53;12.85;;;11.38;;
14282;SDS011;7225;59.282;18.344;2023-06-19T13:02:20;12.98;;;11.65;;
14282;SDS011;7225;59.282;18.344;2023-06-19T13:04:47;12.98;;;11.77;;
14282;SDS011;7225;59.282;18.344;2023-06-19T13:07:14;13.13;;;11.80;;
14282;SDS011;7225;59.282;18.344;2023-06-19T13:09:42;13.48;;;12.13;;
14282;SDS011;7225;59.282;18.344;2023-06-19T13:12:09;12.63;;;11.43;;
14282;SDS011;7225;59.282;18.344;2023-06-19T13:14:36;13.00;;;11.68;;
14282;SDS011;7225;59.282;18.344;2023-06-19T13:17:04;12.95;;;11.65;;
14282;SDS011;7225;59.282;18.344;2023-06-19T13:19:31;12.02;;;10.82;;
14282;SDS011;7225;59.282;18.344;2023-06-19T13:21:58;12.80;;;11.50;;
14282;SDS011;7225;59.282;18.344;2023-06-19T13:24:25;13.68;;;11.63;;
14282;SDS011;7225;59.282;18.344;2023-06-19T13:26:54;13.05;;;11.73;;
14282;SDS011;7225;59.282;18.344;2023-06-19T13:29:21;13.30;;;12.00;;
14282;SDS011;7225;59.282;18.344;2023-06-19T13:31:48;14.45;;;10.98;;
14282;SDS011;7225;59.282;18.344;2023-06-19T13:34:15;13.60;;;12.23;;
14282;SDS011;7225;59.282;18.344;2023-06-19T13:36:42;13.57;;;11.88;;
14282;SDS011;7225;59.282;18.344;2023-06-19T13:39:09;13.02;;;11.80;;
14282;SDS011;7225;59.282;18.344;2023-06-19T13:41:37;13.93;;;11.63;;
14282;SDS011;7225;59.282;18.344;2023-06-19T13:44:04;12.38;;;11.18;;
14282;SDS011;7225;59.282;18.344;2023-06-19T13:46:31;12.05;;;10.75;;
14282;SDS011;7225;59.282;18.344;2023-06-19T13:48:58;12.55;;;11.32;;
14282;SDS011;7225;59.282;18.344;2023-06-19T13:51:25;12.55;;;11.02;;
14282;SDS011;7225;59.282;18.344;2023-06-19T13:53:52;12.90;;;11.63;;
14282;SDS011;7225;59.282;18.344;2023-06-19T13:56:20;14.77;;;12.07;;
14282;SDS011;7225;59.282;18.344;2023-06-19T13:58:49;12.60;;;11.40;;
14282;SDS011;7225;59.282;18.344;2023-06-19T14:01:17;12.75;;;11.35;;
14282;SDS011;7225;59.282;18.344;2023-06-19T14:03:44;13.07;;;11.80;;
14282;SDS011;7225;59.282;18.344;2023-06-19T14:06:11;12.73;;;11.50;;
14282;SDS011;7225;59.282;18.344;2023-06-19T14:08:38;13.55;;;12.30;;
14282;SDS011;7225;59.282;18.344;2023-06-19T14:11:06;13.48;;;12.20;;
14282;SDS011;7225;59.282;18.344;2023-06-19T14:13:33;13.07;;;11.68;;
14282;SDS011;7225;59.282;18.344;2023-06-19T14:16:01;12.75;;;11.25;;
14282;SDS011;7225;59.282;18.344;2023-06-19T14:18:28;13.27;;;11.93;;
14282;SDS011;7225;59.282;18.344;2023-06-19T14:20:55;12.68;;;11.43;;
14282;SDS011;7225;59.282;18.344;2023-06-19T14:23:22;11.60;;;10.40;;
14282;SDS011;7225;59.282;18.344;2023-06-19T14:25:49;12.65;;;11.13;;
14282;SDS011;7225;59.282;18.344;2023-06-19T14:28:16;13.45;;;12.15;;
14282;SDS011;7225;59.282;18.344;2023-06-19T14:30:44;11.90;;;10.80;;
14282;SDS011;7225;59.282;18.344;2023-06-19T14:33:11;13.77;;;12.07;;
14282;SDS011;7225;59.282;18.344;2023-06-19T14:35:42;14.60;;;11.80;;
14282;SDS011;7225;59.282;18.344;2023-06-19T14:38:13;12.90;;;11.60;;
14282;SDS011;7225;59.282;18.344;2023-06-19T14:40:41;13.18;;;11.88;;
14282;SDS011;7225;59.282;18.344;2023-06-19T14:43:08;12.40;;;11.10;;
14282;SDS011;7225;59.282;18.344;2023-06-19T14:45:35;11.50;;;10.50;;
14282;SDS011;7225;59.282;18.344;2023-06-19T14:48:03;12.38;;;11.15;;
14282;SDS011;7225;59.282;18.344;2023-06-19T14:50:31;12.43;;;11.27;;